Aviation Digital Data Service (ADDS)

Output produced by METARs form (1402 UTC 20 October 2021)
found at http://www.aviationweather.gov/metar/data/
 
METAR text: EPLL 201400Z 20007KT 140V240 CAVOK 19/10 Q1009
Conditions at: EPLL (LODZ/LUBLINEK , PL) observed 1400 UTC 20 October 2021
Temperature: 19.0°C (66°F)
Dewpoint: 10.0°C (50°F) [RH = 56%]
Pressure (altimeter): 29.79 inches Hg (1009.0 mb)
Winds: from the SSW (200 degrees) at 8 MPH (7 knots; 3.6 m/s)
Visibility: 6 or more miles (10+ km)
Ceiling: ceiling and visibility are OK
Clouds: unknown
Weather: no significant weather observed at this time

METAR text: EPLL 201330Z 20008KT 160V240 CAVOK 19/10 Q1009
Conditions at: EPLL (LODZ/LUBLINEK , PL) observed 1330 UTC 20 October 2021
Temperature: 19.0°C (66°F)
Dewpoint: 10.0°C (50°F) [RH = 56%]
Pressure (altimeter): 29.79 inches Hg (1009.0 mb)
Winds: from the SSW (200 degrees) at 9 MPH (8 knots; 4.1 m/s)
Visibility: 6 or more miles (10+ km)
Ceiling: ceiling and visibility are OK
Clouds: unknown
Weather: no significant weather observed at this time

Forecast for: EPLL (LODZ/LUBLINEK , PL)
Text: TAF EPLL 201130Z 2012/2112 22012KT CAVOK
Forecast period: 1200 UTC 20 October 2021 to 1200 UTC 21 October 2021
Forecast type: FROM: standard forecast or significant change
Winds: from the SW (220 degrees) at 14 MPH (12 knots; 6.2 m/s)
Visibility: 6 or more miles (10+ km)
Ceiling: unknown
Clouds: missing
Weather: NSW  (no significant weather)
Text: TEMPO 2012/2016 22015G25KT
Forecast period: 1200 to 1600 UTC 20 October 2021
Forecast type: TEMPORARY: The following changes expected for less than half the time period
Winds: from the SW (220 degrees) at 17 MPH (15 knots; 7.7 m/s)
gusting to 29 MPH (25 knots; 12.9 m/s)
Visibility: missing
Ceiling: unknown
Clouds: missing
Weather: no significant weather forecast for this period
Text: TEMPO 2109/2112 22018G30KT SHRA SCT007 BKN030CB
Forecast period: 0900 to 1200 UTC 21 October 2021
Forecast type: TEMPORARY: The following changes expected for less than half the time period
Winds: from the SW (220 degrees) at 21 MPH (18 knots; 9.3 m/s)
gusting to 34 MPH (30 knots; 15.4 m/s)
Visibility: missing
Ceiling: 3000 feet AGL
Clouds: scattered clouds at 700 feet AGL
broken clouds at 3000 feet AGL
Weather: SHRA  (rain showers)